createdAt,value
2017-12-05T00:00:12.601Z,16.17
2017-12-05T00:02:40.119Z,14.17
2017-12-05T00:05:08.402Z,14.70
2017-12-05T00:07:35.929Z,14.57
2017-12-05T00:10:03.447Z,14.47
2017-12-05T00:12:30.969Z,14.33
2017-12-05T00:14:59.266Z,15.57
2017-12-05T00:17:26.780Z,12.80
2017-12-05T00:19:54.299Z,15.10
2017-12-05T00:22:21.830Z,13.97
2017-12-05T00:24:50.108Z,15.00
2017-12-05T00:27:18.393Z,13.80
2017-12-05T00:29:45.981Z,13.90
2017-12-05T00:32:13.497Z,13.03
2017-12-05T00:34:41.780Z,13.93
2017-12-05T00:37:10.080Z,12.90
2017-12-05T00:39:37.597Z,15.90
2017-12-05T00:42:05.146Z,14.13
2017-12-05T00:44:32.740Z,14.00
2017-12-05T00:47:00.275Z,14.77
2017-12-05T00:49:27.808Z,15.00
2017-12-05T00:51:55.322Z,12.63
2017-12-05T00:54:23.601Z,14.00
2017-12-05T00:56:51.148Z,14.30
2017-12-05T00:59:19.433Z,14.43
2017-12-05T01:01:47.742Z,14.73
2017-12-05T01:04:15.253Z,14.60
2017-12-05T01:06:42.760Z,16.10
2017-12-05T01:09:10.292Z,12.80
2017-12-05T01:11:38.568Z,12.93
2017-12-05T01:14:06.848Z,12.07
2017-12-05T01:16:34.378Z,15.50
2017-12-05T01:19:01.894Z,13.50
2017-12-05T01:21:29.429Z,12.40
2017-12-05T01:23:56.937Z,13.43
2017-12-05T01:26:24.449Z,14.70
2017-12-05T01:28:52.023Z,12.50
2017-12-05T01:31:19.534Z,14.57
2017-12-05T01:33:47.258Z,13.43
2017-12-05T01:36:14.804Z,11.20
2017-12-05T01:38:42.313Z,13.73
2017-12-05T01:41:09.834Z,13.63
2017-12-05T01:43:38.146Z,14.60
2017-12-05T01:46:05.878Z,13.33
2017-12-05T01:48:33.410Z,12.73
2017-12-05T01:51:01.718Z,14.33
2017-12-05T01:53:29.250Z,12.83
2017-12-05T01:55:56.770Z,13.47
2017-12-05T01:58:24.310Z,14.80
2017-12-05T02:00:52.505Z,14.00
2017-12-05T02:03:20.046Z,14.40
2017-12-05T02:05:47.588Z,13.83
2017-12-05T02:08:15.109Z,15.30
2017-12-05T02:10:43.442Z,13.63
2017-12-05T02:13:10.952Z,15.97
2017-12-05T02:15:38.474Z,15.57
2017-12-05T02:18:06.026Z,15.70
2017-12-05T02:20:33.536Z,14.73
2017-12-05T02:23:01.049Z,15.13
2017-12-05T02:25:28.584Z,15.00
2017-12-05T02:27:56.101Z,16.50
2017-12-05T02:30:23.626Z,14.50
2017-12-05T02:32:51.162Z,15.43
2017-12-05T02:35:18.693Z,16.00
2017-12-05T02:37:46.220Z,15.33
2017-12-05T02:40:13.760Z,14.87
2017-12-05T02:42:41.290Z,16.47
2017-12-05T02:45:08.816Z,15.77
2017-12-05T02:47:36.353Z,14.30
2017-12-05T02:50:03.877Z,17.33
2017-12-05T02:52:31.401Z,14.90
2017-12-05T02:54:58.939Z,14.57
2017-12-05T02:57:26.448Z,13.60
2017-12-05T02:59:54.591Z,15.57
2017-12-05T03:02:22.900Z,15.40
2017-12-05T03:04:50.566Z,14.57
2017-12-05T03:07:18.093Z,13.20
2017-12-05T03:09:45.656Z,14.33
2017-12-05T03:12:13.947Z,13.80
2017-12-05T03:14:41.456Z,15.97
2017-12-05T03:17:08.986Z,13.13
2017-12-05T03:19:36.498Z,15.47
2017-12-05T03:22:04.009Z,17.27
2017-12-05T03:24:31.551Z,15.97
2017-12-05T03:26:59.069Z,18.67
2017-12-05T03:29:26.583Z,15.83
2017-12-05T03:31:54.118Z,17.07
2017-12-05T03:34:22.406Z,17.40
2017-12-05T03:36:49.928Z,16.53
2017-12-05T03:39:17.462Z,17.63
2017-12-05T03:41:44.986Z,16.20
2017-12-05T03:44:12.596Z,15.90
2017-12-05T03:46:40.145Z,17.30
2017-12-05T03:49:07.660Z,15.93
2017-12-05T03:51:35.209Z,15.70
2017-12-05T03:54:03.499Z,16.10
2017-12-05T03:56:31.023Z,14.07
2017-12-05T03:58:58.565Z,17.37
2017-12-05T04:01:26.089Z,15.97
2017-12-05T04:03:53.605Z,15.60
2017-12-05T04:06:21.163Z,15.67
2017-12-05T04:08:48.680Z,16.33
2017-12-05T04:11:16.196Z,16.30
2017-12-05T04:13:43.732Z,15.30
2017-12-05T04:16:11.254Z,16.27
2017-12-05T04:18:38.798Z,15.63
2017-12-05T04:21:06.321Z,14.83
2017-12-05T04:23:33.838Z,17.37
2017-12-05T04:26:01.421Z,16.83
2017-12-05T04:28:28.944Z,18.20
2017-12-05T04:30:56.457Z,13.70
2017-12-05T04:33:24.003Z,15.87
2017-12-05T04:35:51.519Z,13.70
2017-12-05T04:38:19.049Z,12.80
2017-12-05T04:40:47.360Z,13.13
2017-12-05T04:43:14.876Z,13.40
2017-12-05T04:45:42.398Z,12.87
2017-12-05T04:48:09.937Z,14.07
2017-12-05T04:50:37.490Z,13.27
2017-12-05T04:53:05.022Z,13.17
2017-12-05T04:55:33.337Z,13.83
2017-12-05T04:58:00.861Z,13.07
2017-12-05T05:00:28.377Z,14.57
2017-12-05T05:02:55.908Z,13.57
2017-12-05T05:05:24.194Z,12.60
2017-12-05T05:07:51.709Z,12.53
2017-12-05T05:10:19.247Z,12.73
2017-12-05T05:12:46.764Z,11.53
2017-12-05T05:15:14.281Z,12.63
2017-12-05T05:17:41.822Z,12.47
2017-12-05T05:20:09.336Z,11.93
2017-12-05T05:22:36.862Z,14.30
2017-12-05T05:25:04.406Z,12.00
2017-12-05T05:27:31.924Z,11.30
2017-12-05T05:29:59.540Z,11.67
2017-12-05T05:32:27.081Z,11.43
2017-12-05T05:34:54.610Z,11.10
2017-12-05T05:37:22.135Z,10.90
2017-12-05T05:39:49.669Z,10.53
2017-12-05T05:42:17.188Z,11.30
2017-12-05T05:44:44.714Z,11.10
2017-12-05T05:47:13.017Z,11.33
2017-12-05T05:49:40.542Z,10.80
2017-12-05T05:52:08.044Z,10.30
2017-12-05T05:54:35.608Z,10.40
2017-12-05T05:57:03.121Z,11.77
2017-12-05T05:59:30.640Z,9.53
2017-12-05T06:01:58.177Z,10.17
2017-12-05T06:04:25.696Z,10.70
2017-12-05T06:06:53.228Z,10.83
2017-12-05T06:09:21.533Z,10.53
2017-12-05T06:11:49.122Z,11.20
2017-12-05T06:14:16.809Z,11.80
2017-12-05T06:16:44.324Z,11.23
2017-12-05T06:19:12.829Z,11.77
2017-12-05T06:21:41.146Z,12.87
2017-12-05T06:24:08.781Z,11.60
2017-12-05T06:26:36.437Z,10.90
2017-12-05T06:29:04.045Z,12.87
2017-12-05T06:31:31.582Z,11.37
2017-12-05T06:33:59.142Z,11.50
2017-12-05T06:36:26.661Z,13.47
2017-12-05T06:38:54.975Z,12.00
2017-12-05T06:41:22.506Z,11.10
2017-12-05T06:43:50.042Z,12.27
2017-12-05T06:46:17.578Z,13.77
2017-12-05T06:48:45.117Z,12.30
2017-12-05T06:51:12.633Z,13.33
2017-12-05T06:53:40.972Z,10.53
2017-12-05T06:56:08.514Z,14.03
2017-12-05T06:58:36.045Z,12.17
2017-12-05T07:01:03.557Z,13.13
2017-12-05T07:03:31.118Z,12.73
2017-12-05T07:05:58.665Z,11.90
2017-12-05T07:08:26.209Z,13.30
2017-12-05T07:10:53.752Z,15.03
2017-12-05T07:13:21.273Z,15.10
2017-12-05T07:15:49.602Z,13.83
2017-12-05T07:18:17.144Z,13.70
2017-12-05T07:20:44.669Z,13.90
2017-12-05T07:23:12.187Z,14.07
2017-12-05T07:25:39.733Z,14.20
2017-12-05T07:28:07.252Z,14.10
2017-12-05T07:30:34.769Z,14.40
2017-12-05T07:33:02.309Z,14.63
2017-12-05T07:35:29.850Z,13.27
2017-12-05T07:37:57.392Z,14.37
2017-12-05T07:40:24.920Z,12.60
2017-12-05T07:42:52.445Z,13.07
2017-12-05T07:45:20.008Z,12.43
2017-12-05T07:47:47.520Z,11.60
2017-12-05T07:50:15.042Z,12.00
2017-12-05T07:52:42.570Z,12.13
2017-12-05T07:55:10.862Z,12.33
2017-12-05T07:57:38.390Z,11.80
2017-12-05T08:00:06.158Z,12.33
2017-12-05T08:02:33.682Z,14.00
2017-12-05T08:05:01.201Z,13.87
2017-12-05T08:07:28.749Z,13.17
2017-12-05T08:09:56.261Z,13.97
2017-12-05T08:12:23.789Z,13.30
2017-12-05T08:14:51.335Z,13.80
2017-12-05T08:17:19.622Z,13.63
2017-12-05T08:19:47.138Z,12.93
2017-12-05T08:22:14.669Z,14.23
2017-12-05T08:24:42.190Z,12.50
2017-12-05T08:27:09.730Z,13.30
2017-12-05T08:29:37.263Z,14.27
2017-12-05T08:32:04.794Z,13.37
2017-12-05T08:34:32.349Z,13.57
2017-12-05T08:36:59.859Z,14.83
2017-12-05T08:39:27.385Z,12.70
2017-12-05T08:41:54.922Z,13.27
2017-12-05T08:44:22.457Z,15.20
2017-12-05T08:46:50.759Z,12.83
2017-12-05T08:49:18.378Z,14.20
2017-12-05T08:51:45.914Z,14.30
2017-12-05T08:54:13.436Z,14.27
2017-12-05T08:56:40.993Z,15.33
2017-12-05T08:59:08.532Z,13.90
2017-12-05T09:01:36.087Z,13.77
2017-12-05T09:04:03.631Z,14.10
2017-12-05T09:06:31.921Z,14.00
2017-12-05T09:08:59.467Z,13.50
2017-12-05T09:11:27.002Z,15.83
2017-12-05T09:13:54.525Z,14.17
2017-12-05T09:16:22.831Z,12.70
2017-12-05T09:18:50.344Z,14.50
2017-12-05T09:21:17.880Z,14.60
2017-12-05T09:23:45.421Z,16.40
2017-12-05T09:26:12.944Z,16.50
2017-12-05T09:28:41.269Z,13.20
2017-12-05T09:31:08.821Z,14.70
2017-12-05T09:33:36.337Z,14.33
2017-12-05T09:36:04.670Z,14.27
2017-12-05T09:38:32.184Z,15.50
2017-12-05T09:40:59.697Z,12.53
2017-12-05T09:43:27.261Z,14.30
2017-12-05T09:45:54.789Z,14.23
2017-12-05T09:48:22.330Z,12.93
2017-12-05T09:50:49.906Z,13.27
2017-12-05T09:53:17.433Z,14.30
2017-12-05T09:55:45.717Z,11.83
2017-12-05T09:58:13.275Z,13.00
2017-12-05T10:00:41.569Z,12.70
2017-12-05T10:03:09.081Z,14.43
2017-12-05T10:05:36.640Z,14.00
2017-12-05T10:08:04.156Z,13.20
2017-12-05T10:10:31.680Z,13.73
2017-12-05T10:13:00.020Z,13.10
2017-12-05T10:15:27.558Z,11.77
2017-12-05T10:17:55.106Z,14.73
2017-12-05T10:20:22.653Z,13.30
2017-12-05T10:22:50.201Z,12.20
2017-12-05T10:25:18.521Z,12.63
2017-12-05T10:27:46.054Z,12.93
2017-12-05T10:30:13.581Z,11.90
2017-12-05T10:32:41.117Z,14.60
2017-12-05T10:35:08.659Z,13.00
2017-12-05T10:37:36.206Z,13.23
2017-12-05T10:40:03.770Z,12.57
2017-12-05T10:42:31.309Z,13.60
2017-12-05T10:44:58.851Z,12.90
2017-12-05T10:47:26.388Z,12.97
2017-12-05T10:49:53.908Z,12.20
2017-12-05T10:52:21.445Z,10.30
2017-12-05T10:54:49.767Z,10.37
2017-12-05T10:57:17.296Z,12.90
2017-12-05T10:59:44.826Z,13.20
2017-12-05T11:02:12.375Z,13.33
2017-12-05T11:04:39.909Z,14.07
2017-12-05T11:07:07.433Z,11.37
2017-12-05T11:09:34.976Z,12.77
2017-12-05T11:12:03.269Z,12.50
2017-12-05T11:14:30.798Z,13.60
2017-12-05T11:16:58.344Z,11.80
2017-12-05T11:19:25.861Z,9.87
2017-12-05T11:21:53.398Z,13.37
2017-12-05T11:24:20.952Z,11.47
2017-12-05T11:26:49.264Z,11.30
2017-12-05T11:29:16.790Z,11.17
2017-12-05T11:31:45.092Z,12.77
2017-12-05T11:34:12.619Z,10.70
2017-12-05T11:36:40.921Z,11.03
2017-12-05T11:39:08.461Z,12.63
2017-12-05T11:41:36.754Z,10.20
2017-12-05T11:44:04.274Z,10.10
2017-12-05T11:46:31.818Z,10.50
2017-12-05T11:48:59.485Z,13.90
2017-12-05T11:51:27.012Z,11.07
2017-12-05T11:53:54.573Z,11.90
2017-12-05T11:56:22.135Z,11.80
2017-12-05T11:58:49.649Z,12.30
2017-12-05T12:01:17.168Z,12.03
2017-12-05T12:03:44.707Z,12.00
2017-12-05T12:06:12.260Z,11.20
2017-12-05T12:08:39.929Z,10.90
2017-12-05T12:11:07.449Z,10.87
2017-12-05T12:13:35.007Z,10.80
2017-12-05T12:16:02.535Z,11.10
2017-12-05T12:18:30.046Z,10.57
2017-12-05T12:20:58.355Z,11.43
2017-12-05T12:23:25.890Z,12.40
2017-12-05T12:25:53.414Z,11.80
2017-12-05T12:28:20.954Z,12.03
2017-12-05T12:30:48.478Z,12.30
2017-12-05T12:33:16.000Z,10.53
2017-12-05T12:35:43.537Z,10.87
2017-12-05T12:38:11.078Z,11.07
2017-12-05T12:40:39.339Z,12.97
2017-12-05T12:43:06.885Z,12.60
2017-12-05T12:45:34.422Z,10.70
2017-12-05T12:48:01.946Z,10.73
2017-12-05T12:50:29.482Z,15.03
2017-12-05T12:52:56.997Z,11.53
2017-12-05T12:55:24.522Z,11.67
2017-12-05T12:57:52.073Z,12.40
2017-12-05T13:00:19.598Z,11.47
2017-12-05T13:02:47.901Z,11.93
2017-12-05T13:05:15.462Z,11.33
2017-12-05T13:07:42.999Z,9.90
2017-12-05T13:10:10.537Z,9.23
2017-12-05T13:12:38.122Z,10.30
2017-12-05T13:15:05.811Z,10.27
2017-12-05T13:17:33.466Z,9.30
2017-12-05T13:20:01.047Z,11.43
2017-12-05T13:22:28.650Z,11.47
2017-12-05T13:24:56.380Z,10.27
2017-12-05T13:27:23.975Z,9.97
2017-12-05T13:29:51.486Z,9.10
2017-12-05T13:32:19.103Z,10.43
2017-12-05T13:34:46.752Z,10.07
2017-12-05T13:37:14.398Z,9.43
2017-12-05T13:39:42.091Z,9.40
2017-12-05T13:42:09.800Z,9.80
2017-12-05T13:44:37.368Z,11.37
2017-12-05T13:47:04.957Z,10.27
2017-12-05T13:49:32.637Z,9.33
2017-12-05T13:52:00.321Z,8.50
2017-12-05T13:54:27.878Z,9.67
2017-12-05T13:56:55.429Z,10.40
2017-12-05T13:59:23.807Z,10.87
2017-12-05T14:01:51.419Z,11.23
2017-12-05T14:04:19.009Z,11.13
2017-12-05T14:06:46.608Z,10.87
2017-12-05T14:09:14.243Z,11.40
2017-12-05T14:11:41.928Z,11.37
2017-12-05T14:14:09.655Z,10.60
2017-12-05T14:16:37.343Z,12.53
2017-12-05T14:19:05.761Z,11.50
2017-12-05T14:21:33.441Z,10.93
2017-12-05T14:24:01.109Z,9.77
2017-12-05T14:26:29.497Z,12.40
2017-12-05T14:28:57.150Z,12.43
2017-12-05T14:31:24.777Z,12.13
2017-12-05T14:33:52.366Z,12.80
2017-12-05T14:36:20.005Z,13.10
2017-12-05T14:38:47.637Z,11.80
2017-12-05T14:41:16.066Z,11.73
2017-12-05T14:43:43.814Z,12.00
2017-12-05T14:46:11.613Z,13.20
2017-12-05T14:48:39.198Z,11.70
2017-12-05T14:51:06.793Z,10.80
2017-12-05T14:53:34.329Z,11.30
2017-12-05T14:56:01.934Z,12.53
2017-12-05T14:58:29.558Z,11.27
2017-12-05T15:00:57.189Z,12.03
2017-12-05T15:03:24.860Z,11.63
2017-12-05T15:05:52.458Z,13.03
2017-12-05T15:08:20.113Z,13.60
2017-12-05T15:10:47.772Z,13.63
2017-12-05T15:13:15.342Z,12.00
2017-12-05T15:15:42.871Z,12.30
2017-12-05T15:18:10.391Z,11.83
2017-12-05T15:20:37.937Z,13.10
2017-12-05T15:23:05.507Z,13.00
2017-12-05T15:25:33.034Z,12.73
2017-12-05T15:28:01.345Z,13.70
2017-12-05T15:30:28.862Z,12.23
2017-12-05T15:32:56.408Z,13.27
2017-12-05T15:35:23.958Z,15.77
2017-12-05T15:37:51.469Z,13.70
2017-12-05T15:40:19.005Z,12.80
2017-12-05T15:42:47.308Z,13.30
2017-12-05T15:45:14.853Z,14.40
2017-12-05T15:47:42.368Z,14.60
2017-12-05T15:50:09.877Z,14.33
2017-12-05T15:52:37.428Z,15.20
2017-12-05T15:55:05.038Z,13.80
2017-12-05T15:57:32.567Z,15.83
2017-12-05T16:00:00.114Z,14.57
2017-12-05T16:02:28.415Z,13.73
2017-12-05T16:04:55.930Z,16.87
2017-12-05T16:07:23.457Z,16.80
2017-12-05T16:09:50.993Z,15.90
2017-12-05T16:12:18.522Z,15.50
2017-12-05T16:14:46.056Z,15.10
2017-12-05T16:17:13.579Z,16.00
2017-12-05T16:19:41.109Z,15.43
2017-12-05T16:22:08.661Z,16.10
2017-12-05T16:24:36.942Z,15.27
2017-12-05T16:27:05.217Z,15.37
2017-12-05T16:29:33.544Z,15.10
2017-12-05T16:32:01.086Z,14.50
2017-12-05T16:34:28.605Z,15.13
2017-12-05T16:36:56.905Z,15.33
2017-12-05T16:39:24.416Z,16.20
2017-12-05T16:41:51.957Z,16.07
2017-12-05T16:44:19.492Z,16.40
2017-12-05T16:46:52.820Z,15.23
2017-12-05T16:49:20.336Z,17.30
2017-12-05T16:51:47.859Z,17.47
2017-12-05T16:54:15.393Z,15.63
2017-12-05T16:56:42.953Z,18.17
2017-12-05T16:59:10.469Z,17.20
2017-12-05T17:01:38.767Z,16.80
2017-12-05T17:04:06.289Z,20.10
2017-12-05T17:06:33.832Z,20.57
2017-12-05T17:09:01.361Z,18.27
2017-12-05T17:11:28.907Z,16.87
2017-12-05T17:13:56.665Z,17.13
2017-12-05T17:16:24.181Z,18.07
2017-12-05T17:18:51.714Z,16.47
2017-12-05T17:21:19.222Z,15.80
2017-12-05T17:23:47.501Z,18.10
2017-12-05T17:26:15.796Z,18.13
2017-12-05T17:28:43.306Z,17.37
2017-12-05T17:31:10.854Z,15.83
2017-12-05T17:33:38.418Z,16.10
2017-12-05T17:36:05.937Z,17.67
2017-12-05T17:38:34.322Z,18.20
2017-12-05T17:41:01.938Z,15.63
2017-12-05T17:43:29.565Z,19.50
2017-12-05T17:45:57.183Z,16.27
2017-12-05T17:48:25.596Z,16.20
2017-12-05T17:50:53.180Z,17.40
2017-12-05T17:53:20.776Z,17.40
2017-12-05T17:55:49.092Z,17.20
2017-12-05T17:58:16.715Z,16.83
2017-12-05T18:00:45.194Z,18.10
2017-12-05T18:03:12.815Z,16.53
2017-12-05T18:05:40.358Z,16.13
2017-12-05T18:08:07.873Z,15.30
2017-12-05T18:10:35.420Z,15.80
2017-12-05T18:13:02.945Z,15.73
2017-12-05T18:15:30.472Z,16.57
2017-12-05T18:17:58.772Z,17.03
2017-12-05T18:20:26.290Z,17.37
2017-12-05T18:22:53.864Z,15.90
2017-12-05T18:25:22.909Z,15.93
2017-12-05T18:27:50.642Z,18.17
2017-12-05T18:30:18.427Z,15.37
2017-12-05T18:32:46.163Z,15.63
2017-12-05T18:35:14.006Z,15.53
2017-12-05T18:37:42.446Z,15.17
2017-12-05T18:40:10.123Z,15.73
2017-12-05T18:42:37.756Z,17.43
2017-12-05T18:45:05.361Z,16.60
2017-12-05T18:47:32.956Z,16.20
2017-12-05T18:50:00.588Z,17.60
2017-12-05T18:52:28.189Z,16.10
2017-12-05T18:54:56.501Z,13.70
2017-12-05T18:57:24.063Z,15.73
2017-12-05T18:59:51.771Z,15.60
2017-12-05T19:02:20.085Z,15.80
2017-12-05T19:04:48.181Z,15.87
2017-12-05T19:07:16.743Z,17.43
2017-12-05T19:09:44.468Z,14.87
2017-12-05T19:12:16.347Z,17.30
2017-12-05T19:14:44.147Z,18.90
2017-12-05T19:17:11.699Z,17.00
2017-12-05T19:19:39.743Z,18.30
2017-12-05T19:22:07.582Z,17.40
2017-12-05T19:24:35.640Z,18.30
2017-12-05T19:27:03.405Z,16.63
2017-12-05T19:29:32.121Z,17.10
2017-12-05T19:32:01.050Z,17.43
2017-12-05T19:34:29.056Z,18.13
2017-12-05T19:36:57.606Z,16.63
2017-12-05T19:39:25.682Z,16.97
2017-12-05T19:41:53.973Z,16.90
2017-12-05T19:44:22.892Z,16.00
2017-12-05T19:46:51.180Z,15.47
2017-12-05T19:49:19.381Z,16.30
2017-12-05T19:51:47.608Z,18.73
2017-12-05T19:54:16.196Z,18.27
2017-12-05T19:56:44.673Z,16.03
2017-12-05T19:59:13.347Z,18.50
2017-12-05T20:01:41.887Z,19.30
2017-12-05T20:04:10.483Z,17.40
2017-12-05T20:06:39.925Z,16.80
2017-12-05T20:09:08.570Z,19.80
2017-12-05T20:11:38.391Z,17.90
2017-12-05T20:14:07.128Z,17.70
2017-12-05T20:16:35.792Z,17.63
2017-12-05T20:19:04.391Z,18.37
2017-12-05T20:21:33.138Z,17.33
2017-12-05T20:24:01.898Z,17.93
2017-12-05T20:26:30.600Z,18.70
2017-12-05T20:29:00.088Z,18.50
2017-12-05T20:31:28.685Z,16.50
2017-12-05T20:33:57.452Z,14.70
2017-12-05T20:36:26.033Z,16.93
2017-12-05T20:38:54.694Z,17.20
2017-12-05T20:41:23.419Z,15.40
2017-12-05T20:43:51.986Z,17.20
2017-12-05T20:46:20.511Z,13.83
2017-12-05T20:48:49.067Z,15.87
2017-12-05T20:51:17.448Z,16.40
2017-12-05T20:53:45.876Z,16.83
2017-12-05T20:56:14.791Z,18.47
2017-12-05T20:58:42.932Z,18.33
2017-12-05T21:01:10.945Z,17.87
2017-12-05T21:03:39.727Z,17.60
2017-12-05T21:06:07.680Z,16.30
2017-12-05T21:08:35.533Z,17.30
2017-12-05T21:11:03.320Z,15.57
2017-12-05T21:13:31.624Z,15.73
2017-12-05T21:16:00.080Z,15.57
2017-12-05T21:18:27.740Z,18.33
2017-12-05T21:20:55.660Z,17.40
2017-12-05T21:23:23.307Z,14.93
2017-12-05T21:25:51.678Z,16.23
2017-12-05T21:28:20.105Z,16.73
2017-12-05T21:30:47.724Z,18.30
2017-12-05T21:33:16.094Z,18.77
2017-12-05T21:35:44.421Z,17.40
2017-12-05T21:38:11.987Z,18.77
2017-12-05T21:40:39.494Z,18.00
2017-12-05T21:43:07.076Z,16.43
2017-12-05T21:45:35.451Z,21.17
2017-12-05T21:48:03.727Z,19.27
2017-12-05T21:50:31.233Z,16.13
2017-12-05T21:52:58.774Z,18.40
2017-12-05T21:55:26.369Z,17.27
2017-12-05T21:57:54.215Z,18.97
2017-12-05T22:00:22.591Z,16.43
2017-12-05T22:02:50.097Z,18.93
2017-12-05T22:05:17.614Z,18.50
2017-12-05T22:07:45.165Z,16.60
2017-12-05T22:10:12.669Z,15.90
2017-12-05T22:12:40.189Z,19.30
2017-12-05T22:15:07.820Z,16.60
2017-12-05T22:17:36.174Z,18.70
2017-12-05T22:20:03.788Z,17.30
2017-12-05T22:22:31.354Z,16.20
2017-12-05T22:24:58.944Z,18.43
2017-12-05T22:27:26.460Z,18.87
2017-12-05T22:29:54.087Z,15.80
2017-12-05T22:32:21.726Z,17.07
2017-12-05T22:34:49.244Z,15.93
2017-12-05T22:37:16.807Z,17.20
2017-12-05T22:39:44.364Z,15.73
2017-12-05T22:42:11.884Z,15.27
2017-12-05T22:44:39.416Z,16.87
2017-12-05T22:47:07.075Z,17.97
2017-12-05T22:49:36.265Z,16.50
2017-12-05T22:52:03.805Z,16.33
2017-12-05T22:54:31.324Z,16.40
2017-12-05T22:56:58.833Z,14.30
2017-12-05T22:59:26.378Z,16.00
2017-12-05T23:01:53.914Z,15.40
2017-12-05T23:04:22.193Z,13.83
2017-12-05T23:06:50.530Z,17.83
2017-12-05T23:09:18.042Z,16.93
2017-12-05T23:11:46.353Z,16.80
2017-12-05T23:14:13.937Z,16.40
2017-12-05T23:16:41.457Z,15.43
2017-12-05T23:19:08.968Z,15.43
2017-12-05T23:21:37.292Z,16.70
2017-12-05T23:24:04.816Z,15.80
2017-12-05T23:26:32.322Z,15.23
2017-12-05T23:28:59.855Z,13.57
2017-12-05T23:31:28.143Z,15.07
2017-12-05T23:33:55.672Z,16.13
2017-12-05T23:36:23.231Z,16.13
2017-12-05T23:38:50.753Z,17.33
2017-12-05T23:41:18.269Z,16.00
2017-12-05T23:43:45.808Z,16.40
2017-12-05T23:46:13.320Z,15.37
2017-12-05T23:48:40.859Z,14.43
2017-12-05T23:51:08.373Z,15.57
2017-12-05T23:53:35.888Z,15.83
2017-12-05T23:56:03.423Z,15.80
2017-12-05T23:58:30.936Z,14.40
